createdAt,value
2022-11-08T00:02:09.292Z,98213.75
2022-11-08T00:04:36.463Z,98208.31
2022-11-08T00:07:22.395Z,98212.38
2022-11-08T00:10:08.211Z,98204.09
2022-11-08T00:12:53.967Z,98201.16
2022-11-08T00:15:21.081Z,98199.50
2022-11-08T00:17:48.188Z,98197.00
2022-11-08T00:20:15.506Z,98190.00
2022-11-08T00:22:42.584Z,98189.16
2022-11-08T00:25:10.672Z,98190.00
2022-11-08T00:27:37.715Z,98192.81
2022-11-08T00:30:05.140Z,98189.72
2022-11-08T00:32:32.221Z,98186.22
2022-11-08T00:34:59.257Z,98196.88
2022-11-08T00:37:26.301Z,98192.22
2022-11-08T00:39:53.338Z,98189.06
2022-11-08T00:42:20.535Z,98195.59
2022-11-08T00:44:47.678Z,98193.97
2022-11-08T00:47:14.795Z,98196.81
2022-11-08T00:49:41.864Z,98195.97
2022-11-08T00:52:09.300Z,98196.97
2022-11-08T00:54:36.353Z,98195.97
2022-11-08T00:57:03.508Z,98181.63
2022-11-08T00:59:30.582Z,98188.97
2022-11-08T01:01:57.805Z,98187.66
2022-11-08T01:04:24.965Z,98177.38
2022-11-08T01:06:52.033Z,98182.53
2022-11-08T01:09:19.063Z,98172.03
2022-11-08T01:11:47.858Z,98174.06
2022-11-08T01:14:15.142Z,98172.41
2022-11-08T01:16:42.325Z,98176.06
2022-11-08T01:19:09.872Z,98177.13
2022-11-08T01:21:37.268Z,98168.81
2022-11-08T01:24:04.579Z,98171.47
2022-11-08T01:26:31.627Z,98171.47
2022-11-08T01:28:58.950Z,98169.03
2022-11-08T01:31:27.721Z,98171.88
2022-11-08T01:33:55.169Z,98169.81
2022-11-08T01:36:23.667Z,98179.88
2022-11-08T01:38:51.027Z,98170.22
2022-11-08T01:41:19.489Z,98177.56
2022-11-08T01:43:48.063Z,98168.91
2022-11-08T01:46:15.077Z,98168.91
2022-11-08T01:48:45.468Z,98172.59
2022-11-08T01:51:15.092Z,98164.78
2022-11-08T01:53:43.204Z,98169.63
2022-11-08T01:56:10.896Z,98167.34
2022-11-08T01:58:39.774Z,98159.34
2022-11-08T02:01:07.034Z,98161.38
2022-11-08T02:03:34.576Z,98151.25
2022-11-08T02:06:01.974Z,98155.09
2022-11-08T02:08:32.597Z,98149.13
2022-11-08T02:10:59.722Z,98151.78
2022-11-08T02:13:28.659Z,98144.34
2022-11-08T02:15:56.018Z,98147.53
2022-11-08T02:18:24.074Z,98149.56
2022-11-08T02:20:57.249Z,98141.75
2022-11-08T02:23:26.827Z,98137.59
2022-11-08T02:25:54.037Z,98149.56
2022-11-08T02:28:21.344Z,98141.19
2022-11-08T02:30:48.466Z,98136.50
2022-11-08T02:33:16.673Z,98136.50
2022-11-08T02:35:48.770Z,98129.53
2022-11-08T02:38:17.136Z,98126.19
2022-11-08T02:40:45.343Z,98128.25
2022-11-08T02:43:12.373Z,98124.09
2022-11-08T02:45:39.572Z,98126.94
2022-11-08T02:48:06.942Z,98120.16
2022-11-08T02:50:34.388Z,98113.34
2022-11-08T02:53:01.428Z,98101.00
2022-11-08T02:55:29.078Z,98101.41
2022-11-08T02:57:56.353Z,98097.25
2022-11-08T03:00:23.427Z,98100.09
2022-11-08T03:02:54.055Z,98093.09
2022-11-08T03:05:21.392Z,98095.09
2022-11-08T03:07:48.539Z,98101.16
2022-11-08T03:10:16.376Z,98095.72
2022-11-08T03:12:43.664Z,98095.28
2022-11-08T03:15:11.459Z,98091.97
2022-11-08T03:17:38.768Z,98087.63
2022-11-08T03:20:06.707Z,98093.34
2022-11-08T03:22:33.802Z,98098.84
2022-11-08T03:25:00.885Z,98101.34
2022-11-08T03:27:27.936Z,98101.34
2022-11-08T03:29:54.958Z,98090.69
2022-11-08T03:32:22.728Z,98103.81
2022-11-08T03:34:49.802Z,98101.13
2022-11-08T03:37:17.100Z,98106.66
2022-11-08T03:39:44.153Z,98090.19
2022-11-08T03:42:11.197Z,98093.88
2022-11-08T03:44:38.287Z,98101.41
2022-11-08T03:47:05.363Z,98094.75
2022-11-08T03:49:32.506Z,98086.31
2022-11-08T03:51:59.585Z,98101.47
2022-11-08T03:54:26.670Z,98096.16
2022-11-08T03:56:53.749Z,98105.13
2022-11-08T03:59:20.854Z,98086.66
2022-11-08T04:01:48.074Z,98094.50
2022-11-08T04:04:15.229Z,98088.31
2022-11-08T04:06:42.309Z,98090.16
2022-11-08T04:09:09.345Z,98086.84
2022-11-08T04:11:54.771Z,98086.56
2022-11-08T04:14:40.686Z,98091.22
2022-11-08T04:17:07.759Z,98083.63
2022-11-08T04:19:53.420Z,98071.31
2022-11-08T04:22:20.480Z,98075.13
2022-11-08T04:24:47.555Z,98077.97
2022-11-08T04:27:14.576Z,98081.84
2022-11-08T04:29:41.636Z,98075.84
2022-11-08T04:32:08.716Z,98078.03
2022-11-08T04:34:35.907Z,98076.41
2022-11-08T04:37:03.235Z,98078.19
2022-11-08T04:39:30.425Z,98081.94
2022-11-08T04:42:01.826Z,98074.97
2022-11-08T04:44:29.615Z,98062.66
2022-11-08T04:46:56.706Z,98070.00
2022-11-08T04:49:23.752Z,98057.06
2022-11-08T04:51:50.794Z,98055.56
2022-11-08T04:54:17.883Z,98059.41
2022-11-08T04:56:44.920Z,98058.78
2022-11-08T04:59:12.557Z,98058.44
2022-11-08T05:01:39.856Z,98061.00
2022-11-08T05:04:07.108Z,98055.06
2022-11-08T05:06:34.218Z,98047.25
2022-11-08T05:09:01.367Z,98046.56
2022-11-08T05:11:29.078Z,98045.41
2022-11-08T05:13:56.693Z,98042.56
2022-11-08T05:16:25.564Z,98033.94
2022-11-08T05:18:52.627Z,98035.59
2022-11-08T05:21:39.073Z,98040.91
2022-11-08T05:24:07.296Z,98037.59
2022-11-08T05:26:35.406Z,98039.09
2022-11-08T05:29:02.558Z,98048.34
2022-11-08T05:31:29.657Z,98049.19
2022-11-08T05:33:57.704Z,98044.03
2022-11-08T05:36:24.841Z,98036.88
2022-11-08T05:38:51.898Z,98041.38
2022-11-08T05:41:20.026Z,98037.25
2022-11-08T05:43:48.118Z,98039.09
2022-11-08T05:46:16.052Z,98039.25
2022-11-08T05:48:43.654Z,98033.28
2022-11-08T05:51:12.024Z,98028.94
2022-11-08T05:53:39.830Z,98027.50
2022-11-08T05:56:07.514Z,98026.00
2022-11-08T05:58:35.247Z,98028.00
2022-11-08T06:01:04.476Z,98022.69
2022-11-08T06:03:32.137Z,98027.53
2022-11-08T06:06:02.015Z,98030.38
2022-11-08T06:08:29.203Z,98025.41
2022-11-08T06:11:01.448Z,98030.72
2022-11-08T06:13:29.046Z,98023.41
2022-11-08T06:15:59.489Z,98027.44
2022-11-08T06:18:26.595Z,98022.28
2022-11-08T06:20:53.699Z,98020.28
2022-11-08T06:23:21.129Z,98028.25
2022-11-08T06:25:48.342Z,98020.63
2022-11-08T06:28:15.469Z,98024.28
2022-11-08T06:30:42.492Z,98031.44
2022-11-08T06:33:09.552Z,98033.38
2022-11-08T06:35:37.035Z,98036.88
2022-11-08T06:38:08.993Z,98039.19
2022-11-08T06:40:39.714Z,98034.53
2022-11-08T06:43:06.814Z,98043.97
2022-11-08T06:45:33.953Z,98042.81
2022-11-08T06:48:02.162Z,98045.63
2022-11-08T06:50:29.970Z,98053.44
2022-11-08T06:52:57.704Z,98041.25
2022-11-08T06:55:25.086Z,98047.25
2022-11-08T06:57:52.425Z,98052.00
2022-11-08T07:00:20.064Z,98052.97
2022-11-08T07:02:57.798Z,98048.56
2022-11-08T07:05:25.864Z,98053.66
2022-11-08T07:07:53.260Z,98058.94
2022-11-08T07:10:21.646Z,98077.06
2022-11-08T07:12:57.596Z,98062.31
2022-11-08T07:15:24.648Z,98066.53
2022-11-08T07:17:51.751Z,98064.34
2022-11-08T07:20:18.863Z,98073.44
2022-11-08T07:22:45.987Z,98076.47
2022-11-08T07:25:13.138Z,98074.28
2022-11-08T07:27:40.225Z,98074.25
2022-11-08T07:30:07.478Z,98088.25
2022-11-08T07:32:34.620Z,98094.94
2022-11-08T07:35:01.647Z,98094.09
2022-11-08T07:37:28.780Z,98084.72
2022-11-08T07:39:55.799Z,98089.56
2022-11-08T07:42:22.894Z,98094.59
2022-11-08T07:45:03.097Z,98099.75
2022-11-08T07:47:30.349Z,98093.84
2022-11-08T07:49:57.560Z,98104.72
2022-11-08T07:52:42.997Z,98098.00
2022-11-08T07:55:15.044Z,98094.78
2022-11-08T07:57:42.121Z,98104.72
2022-11-08T08:00:11.042Z,98113.50
2022-11-08T08:03:07.098Z,98108.41
2022-11-08T08:05:41.605Z,98108.78
2022-11-08T08:08:29.337Z,98116.25
2022-11-08T08:11:19.703Z,98114.00
2022-11-08T08:13:46.790Z,98113.09
2022-11-08T08:16:29.455Z,98118.25
2022-11-08T08:19:05.418Z,98117.00
2022-11-08T08:21:33.568Z,98117.50
2022-11-08T08:24:01.706Z,98120.03
2022-11-08T08:26:40.201Z,98115.56
2022-11-08T08:29:08.823Z,98109.56
2022-11-08T08:31:42.095Z,98107.13
2022-11-08T08:34:09.234Z,98103.91
2022-11-08T08:36:40.598Z,98105.16
2022-11-08T08:39:12.160Z,98108.66
2022-11-08T08:41:42.374Z,98117.88
2022-11-08T08:44:12.387Z,98129.28
2022-11-08T08:46:40.408Z,98124.28
2022-11-08T08:49:26.102Z,98116.81
2022-11-08T08:52:04.605Z,98123.28
2022-11-08T08:54:38.585Z,98128.72
2022-11-08T08:57:10.936Z,98127.06
2022-11-08T09:03:02.643Z,98122.44
2022-11-08T09:05:56.543Z,98130.75
2022-11-08T09:08:26.731Z,98143.16
2022-11-08T09:10:58.136Z,98142.78
2022-11-08T09:13:28.672Z,98148.97
2022-11-08T09:15:55.760Z,98145.25
2022-11-08T09:18:23.075Z,98141.53
2022-11-08T09:20:50.477Z,98144.84
2022-11-08T09:23:18.143Z,98143.59
2022-11-08T09:25:45.492Z,98134.72
2022-11-08T09:28:12.645Z,98137.00
2022-11-08T09:30:39.712Z,98135.75
2022-11-08T09:33:07.274Z,98140.31
2022-11-08T09:35:34.632Z,98133.50
2022-11-08T09:38:04.065Z,98129.56
2022-11-08T09:40:39.564Z,98120.09
2022-11-08T09:43:25.195Z,98118.44
2022-11-08T09:45:53.774Z,98112.25
2022-11-08T09:48:29.695Z,98099.84
2022-11-08T09:51:00.227Z,98099.84
2022-11-08T09:53:53.645Z,98098.41
2022-11-08T09:56:28.807Z,98094.03
2022-11-08T09:59:02.144Z,98092.84
2022-11-08T10:01:34.473Z,98088.31
2022-11-08T10:04:15.674Z,98093.88
2022-11-08T10:06:58.155Z,98109.31
2022-11-08T10:09:38.324Z,98094.84
2022-11-08T10:12:21.049Z,98101.47
2022-11-08T10:15:23.775Z,98087.44
2022-11-08T10:17:57.199Z,98070.50
2022-11-08T10:20:27.351Z,98079.13
2022-11-08T10:23:09.770Z,98077.44
2022-11-08T10:25:42.433Z,98087.50
2022-11-08T10:28:46.801Z,98086.97
2022-11-08T10:31:14.687Z,98076.25
2022-11-08T10:33:41.691Z,98084.66
2022-11-08T10:36:31.585Z,98080.56
2022-11-08T10:39:13.638Z,98063.50
2022-11-08T10:41:45.144Z,98056.44
2022-11-08T10:44:17.324Z,98067.56
2022-11-08T10:46:48.866Z,98061.97
2022-11-08T10:49:15.877Z,98041.44
2022-11-08T10:51:43.877Z,98035.63
2022-11-08T10:54:29.483Z,98035.03
2022-11-08T10:56:56.544Z,98022.63
2022-11-08T10:59:29.151Z,98028.91
2022-11-08T11:01:56.462Z,98029.91
2022-11-08T11:04:33.363Z,98016.44
2022-11-08T11:07:23.765Z,98013.03
2022-11-08T11:09:50.917Z,98007.88
2022-11-08T11:12:18.057Z,97996.59
2022-11-08T11:14:45.103Z,97998.53
2022-11-08T11:17:15.391Z,97974.59
2022-11-08T11:19:52.926Z,97973.13
2022-11-08T11:22:46.092Z,97964.59
2022-11-08T11:25:17.858Z,97960.41
2022-11-08T11:27:48.290Z,97964.75
2022-11-08T11:30:23.774Z,97962.56
2022-11-08T11:32:55.650Z,97954.63
2022-11-08T11:35:23.623Z,97951.72
2022-11-08T11:37:50.838Z,97953.81
2022-11-08T11:40:26.480Z,97945.81
2022-11-08T11:42:59.486Z,97935.66
2022-11-08T11:45:37.051Z,97930.94
2022-11-08T11:48:21.826Z,97924.16
2022-11-08T11:50:50.224Z,97917.78
2022-11-08T11:53:18.942Z,97911.94
2022-11-08T11:55:52.093Z,97905.09
2022-11-08T11:58:37.777Z,97910.00
2022-11-08T12:01:14.190Z,97898.63
2022-11-08T12:03:47.615Z,97896.75
2022-11-08T12:06:28.413Z,97899.34
2022-11-08T12:09:05.146Z,97897.44
2022-11-08T12:11:32.190Z,97892.97
2022-11-08T12:13:59.233Z,97898.25
2022-11-08T12:16:31.388Z,97894.78
2022-11-08T12:19:13.486Z,97892.25
2022-11-08T12:21:43.493Z,97877.28
2022-11-08T12:24:15.175Z,97874.13
2022-11-08T12:26:56.372Z,97862.88
2022-11-08T12:29:33.351Z,97861.50
2022-11-08T12:32:09.513Z,97851.06
2022-11-08T12:34:36.607Z,97849.03
2022-11-08T12:37:11.097Z,97848.69
2022-11-08T12:39:38.177Z,97850.13
2022-11-08T12:42:25.810Z,97843.53
2022-11-08T12:45:04.891Z,97833.19
2022-11-08T12:47:35.558Z,97823.91
2022-11-08T12:50:05.692Z,97814.06
2022-11-08T12:52:52.989Z,97803.13
2022-11-08T12:55:24.087Z,97786.94
2022-11-08T12:57:55.102Z,97783.88
2022-11-08T13:00:22.282Z,97773.47
2022-11-08T13:03:09.603Z,97769.16
2022-11-08T13:05:44.558Z,97767.19
2022-11-08T13:08:11.573Z,97765.69
2022-11-08T13:11:00.816Z,97769.28
2022-11-08T13:13:49.807Z,97770.38
2022-11-08T13:16:20.570Z,97753.00
2022-11-08T13:18:54.719Z,97753.47
2022-11-08T13:21:27.654Z,97757.34
2022-11-08T13:24:42.301Z,97750.91
2022-11-08T13:27:19.388Z,97739.22
2022-11-08T13:29:46.434Z,97741.31
2022-11-08T13:32:21.027Z,97732.06
2022-11-08T13:34:54.135Z,97724.09
2022-11-08T13:37:36.327Z,97720.47
2022-11-08T13:40:18.577Z,97713.28
2022-11-08T13:42:45.584Z,97716.44
2022-11-08T13:45:18.520Z,97717.50
2022-11-08T13:47:48.039Z,97708.25
2022-11-08T13:50:33.942Z,97715.72
2022-11-08T13:53:19.566Z,97711.84
2022-11-08T13:55:47.993Z,97708.81
2022-11-08T13:58:30.204Z,97711.72
2022-11-08T14:00:58.095Z,97714.84
2022-11-08T14:03:45.460Z,97722.22
2022-11-08T14:06:18.742Z,97714.84
2022-11-08T14:08:51.819Z,97708.34
2022-11-08T14:11:27.846Z,97706.44
2022-11-08T14:14:00.751Z,97709.84
2022-11-08T14:16:31.557Z,97707.81
2022-11-08T14:19:16.482Z,97705.00
2022-11-08T14:21:50.813Z,97707.53
2022-11-08T14:24:20.882Z,97706.56
2022-11-08T14:26:48.163Z,97706.22
2022-11-08T14:29:16.400Z,97698.81
2022-11-08T14:31:43.644Z,97702.19
2022-11-08T14:34:49.421Z,97701.00
2022-11-08T14:37:25.000Z,97707.03
2022-11-08T14:39:53.079Z,97702.56
2022-11-08T14:42:24.550Z,97715.63
2022-11-08T14:44:53.690Z,97708.41
2022-11-08T14:47:24.017Z,97716.56
2022-11-08T14:49:51.272Z,97721.56
2022-11-08T14:52:22.840Z,97718.88
2022-11-08T14:54:58.792Z,97722.19
2022-11-08T14:57:30.515Z,97725.91
2022-11-08T14:59:58.222Z,97718.88
2022-11-08T15:02:25.839Z,97718.06
2022-11-08T15:04:53.568Z,97718.06
2022-11-08T15:07:21.988Z,97703.19
2022-11-08T15:09:49.601Z,97708.63
2022-11-08T15:12:18.537Z,97711.41
2022-11-08T15:15:05.809Z,97706.47
2022-11-08T15:17:34.893Z,97700.94
2022-11-08T15:20:03.178Z,97706.53
2022-11-08T15:22:31.600Z,97713.19
2022-11-08T15:25:14.026Z,97709.88
2022-11-08T15:27:48.376Z,97706.84
2022-11-08T15:30:16.951Z,97707.25
2022-11-08T15:32:44.017Z,97707.47
2022-11-08T15:35:27.246Z,97702.56
2022-11-08T15:37:59.229Z,97705.25
2022-11-08T15:40:28.349Z,97708.38
2022-11-08T15:42:55.604Z,97710.44
2022-11-08T15:45:33.239Z,97713.59
2022-11-08T15:48:21.627Z,97704.31
2022-11-08T15:50:48.930Z,97708.03
2022-11-08T15:53:16.027Z,97716.53
2022-11-08T15:55:48.507Z,97714.88
2022-11-08T15:58:17.226Z,97709.94
2022-11-08T16:00:45.976Z,97718.00
2022-11-08T16:03:13.111Z,97712.06
2022-11-08T16:05:40.196Z,97721.16
2022-11-08T16:08:07.221Z,97722.38
2022-11-08T16:10:38.659Z,97724.25
2022-11-08T16:13:06.221Z,97731.94
2022-11-08T16:15:34.812Z,97727.38
2022-11-08T16:18:02.486Z,97736.47
2022-11-08T16:20:30.950Z,97732.16
2022-11-08T16:22:58.694Z,97742.06
2022-11-08T16:25:26.575Z,97738.75
2022-11-08T16:27:56.175Z,97752.19
2022-11-08T16:30:23.353Z,97745.41
2022-11-08T16:32:50.654Z,97741.06
2022-11-08T16:35:17.823Z,97745.63
2022-11-08T16:37:45.380Z,97752.84
2022-11-08T16:40:12.756Z,97758.41
2022-11-08T16:42:39.759Z,97753.25
2022-11-08T16:45:07.075Z,97765.03
2022-11-08T16:47:34.887Z,97751.59
2022-11-08T16:50:01.993Z,97747.72
2022-11-08T16:52:29.129Z,97757.22
2022-11-08T16:54:56.206Z,97761.41
2022-11-08T16:57:38.557Z,97756.03
2022-11-08T17:00:06.457Z,97764.09
2022-11-08T17:02:34.250Z,97770.47
2022-11-08T17:05:01.293Z,97767.81
2022-11-08T17:07:28.390Z,97767.81
2022-11-08T17:09:55.398Z,97773.16
2022-11-08T17:12:22.489Z,97774.19
2022-11-08T17:14:49.574Z,97767.19
2022-11-08T17:17:16.669Z,97769.28
2022-11-08T17:19:43.690Z,97778.38
2022-11-08T17:22:10.759Z,97774.03
2022-11-08T17:24:37.851Z,97784.16
2022-11-08T17:27:05.002Z,97792.84
2022-11-08T17:29:32.316Z,97784.38
2022-11-08T17:31:59.340Z,97792.44
2022-11-08T17:34:26.356Z,97802.56
2022-11-08T17:36:53.468Z,97804.44
2022-11-08T17:39:20.530Z,97802.78
2022-11-08T17:41:47.957Z,97799.28
2022-11-08T17:44:15.056Z,97811.88
2022-11-08T17:46:42.184Z,97812.28
2022-11-08T17:49:09.390Z,97810.88
2022-11-08T17:51:36.665Z,97801.59
2022-11-08T17:54:03.868Z,97808.41
2022-11-08T17:56:31.652Z,97806.75
2022-11-08T17:58:58.677Z,97809.44
2022-11-08T18:01:25.927Z,97798.72
2022-11-08T18:03:53.050Z,97805.13
2022-11-08T18:06:20.107Z,97808.63
2022-11-08T18:08:47.226Z,97802.44
2022-11-08T18:11:14.334Z,97805.31
2022-11-08T18:13:41.413Z,97812.78
2022-11-08T18:16:12.791Z,97804.94
2022-11-08T18:18:40.185Z,97809.69
2022-11-08T18:21:07.847Z,97810.72
2022-11-08T18:23:35.255Z,97805.78
2022-11-08T18:26:02.427Z,97812.19
2022-11-08T18:28:29.597Z,97811.56
2022-11-08T18:31:02.754Z,97810.94
2022-11-08T18:33:29.772Z,97818.97
2022-11-08T18:35:56.828Z,97815.72
2022-11-08T18:38:23.902Z,97822.09
2022-11-08T18:40:51.149Z,97820.66
2022-11-08T18:43:18.559Z,97820.88
2022-11-08T18:45:45.909Z,97822.72
2022-11-08T18:48:13.183Z,97816.56
2022-11-08T18:50:41.241Z,97825.63
2022-11-08T18:53:09.358Z,97816.16
2022-11-08T18:55:37.367Z,97809.34
2022-11-08T18:58:04.838Z,97821.09
2022-11-08T19:00:31.911Z,97817.81
2022-11-08T19:02:58.998Z,97827.72
2022-11-08T19:05:26.137Z,97818.84
2022-11-08T19:07:53.162Z,97825.03
2022-11-08T19:10:20.246Z,97812.66
2022-11-08T19:12:47.305Z,97824.59
2022-11-08T19:15:14.483Z,97824.59
2022-11-08T19:17:42.621Z,97833.69
2022-11-08T19:20:09.904Z,97827.72
2022-11-08T19:22:36.943Z,97830.56
2022-11-08T19:25:04.192Z,97836.75
2022-11-08T19:27:31.683Z,97839.44
2022-11-08T19:30:00.379Z,97830.78
2022-11-08T19:32:33.378Z,97836.34
2022-11-08T19:35:00.428Z,97832.84
2022-11-08T19:37:27.450Z,97834.09
2022-11-08T19:39:55.291Z,97831.00
2022-11-08T19:42:22.340Z,97834.69
2022-11-08T19:44:49.567Z,97830.81
2022-11-08T19:47:16.633Z,97830.38
2022-11-08T19:49:43.771Z,97823.19
2022-11-08T19:52:11.708Z,97824.84
2022-11-08T19:54:38.730Z,97828.97
2022-11-08T19:57:06.445Z,97826.91
2022-11-08T19:59:33.696Z,97827.09
2022-11-08T20:02:00.819Z,97824.66
2022-11-08T20:04:27.893Z,97833.72
2022-11-08T20:06:54.983Z,97826.50
2022-11-08T20:09:27.406Z,97831.88
2022-11-08T20:11:57.352Z,97830.22
2022-11-08T20:14:24.384Z,97832.47
2022-11-08T20:16:53.692Z,97838.84
2022-11-08T20:19:21.297Z,97838.06
2022-11-08T20:21:48.478Z,97843.41
2022-11-08T20:24:16.044Z,97839.28
2022-11-08T20:26:44.214Z,97836.78
2022-11-08T20:29:11.448Z,97835.56
2022-11-08T20:31:38.992Z,97836.59
2022-11-08T20:34:09.894Z,97849.97
2022-11-08T20:36:37.755Z,97839.66
2022-11-08T20:39:07.580Z,97839.28
2022-11-08T20:41:37.505Z,97842.16
2022-11-08T20:44:05.734Z,97836.78
2022-11-08T20:46:34.180Z,97835.34
2022-11-08T20:49:01.879Z,97839.03
2022-11-08T20:51:29.962Z,97837.63
2022-11-08T20:53:57.752Z,97835.13
2022-11-08T20:56:25.529Z,97834.31
2022-11-08T20:58:52.596Z,97848.09
2022-11-08T21:01:21.205Z,97845.00
2022-11-08T21:03:48.725Z,97845.84
2022-11-08T21:06:17.857Z,97854.69
2022-11-08T21:11:34.389Z,97849.53
2022-11-08T21:14:01.954Z,97848.72
2022-11-08T21:16:31.967Z,97848.09
2022-11-08T21:19:02.398Z,97845.63
2022-11-08T21:21:29.650Z,97846.03
2022-11-08T21:23:56.669Z,97853.84
2022-11-08T21:26:23.711Z,97849.53
2022-11-08T21:28:52.127Z,97850.34
2022-11-08T21:31:19.247Z,97848.50
2022-11-08T21:33:46.288Z,97857.56
2022-11-08T21:36:13.860Z,97860.41
2022-11-08T21:38:40.949Z,97855.25
2022-11-08T21:41:09.142Z,97845.59
2022-11-08T21:43:37.014Z,97841.25
2022-11-08T21:46:17.861Z,97837.78
2022-11-08T21:48:45.427Z,97847.84
2022-11-08T21:51:12.923Z,97850.72
2022-11-08T21:53:49.324Z,97845.19
2022-11-08T21:56:21.464Z,97845.38
2022-11-08T21:58:48.519Z,97841.06
2022-11-08T22:01:16.581Z,97856.28
2022-11-08T22:03:43.795Z,97861.00
2022-11-08T22:06:10.843Z,97861.41
2022-11-08T22:08:37.902Z,97858.09
2022-11-08T22:11:05.032Z,97860.78
2022-11-08T22:13:32.410Z,97867.97
2022-11-08T22:15:59.587Z,97867.97
2022-11-08T22:18:43.403Z,97865.31
2022-11-08T22:21:32.133Z,97867.97
2022-11-08T22:23:59.171Z,97867.16
2022-11-08T22:26:26.188Z,97870.06
2022-11-08T22:28:53.273Z,97868.41
2022-11-08T22:31:20.346Z,97869.41
2022-11-08T22:33:47.417Z,97867.97
2022-11-08T22:36:14.585Z,97863.81
2022-11-08T22:38:41.624Z,97852.72
2022-11-08T22:41:08.623Z,97851.50
2022-11-08T22:43:35.872Z,97852.25
2022-11-08T22:46:03.258Z,97860.91
2022-11-08T22:48:30.347Z,97860.91
2022-11-08T22:50:57.528Z,97858.84
2022-11-08T22:53:24.768Z,97857.63
2022-11-08T22:55:51.772Z,97856.78
2022-11-08T22:58:18.841Z,97864.00
2022-11-08T23:00:45.948Z,97862.13
2022-11-08T23:03:13.024Z,97866.69
2022-11-08T23:05:40.043Z,97869.56
2022-11-08T23:08:07.073Z,97870.56
2022-11-08T23:10:54.351Z,97870.38
2022-11-08T23:13:40.095Z,97877.16
2022-11-08T23:16:27.948Z,97875.31
2022-11-08T23:19:13.481Z,97865.44
2022-11-08T23:21:59.398Z,97876.13
2022-11-08T23:24:26.730Z,97877.78
2022-11-08T23:27:12.555Z,97877.16
2022-11-08T23:29:58.261Z,97872.44
2022-11-08T23:32:25.351Z,97869.13
2022-11-08T23:34:52.453Z,97869.97
2022-11-08T23:37:19.510Z,97862.13
2022-11-08T23:40:04.971Z,97872.03
2022-11-08T23:42:50.785Z,97863.38
2022-11-08T23:45:17.940Z,97867.25
2022-11-08T23:47:45.065Z,97887.19
2022-11-08T23:50:12.271Z,97883.09
2022-11-08T23:52:39.401Z,97876.91
2022-11-08T23:55:06.731Z,97873.41
2022-11-08T23:57:33.780Z,97875.44
